Time;durP1;ratioP1;P1;durP2;ratioP2;P2;SDS_P1;SDS_P2;PMS_P1;PMS_P2;Temp;Humidity;BMP_temperature;BMP_pressure;BME280_temperature;BME280_humidity;BME280_pressure;Samples;Min_cycle;Max_cycle;Signal;HPM_P1;HPM_P2
2022/06/15 00:02:08;;;;;;;3.80;2.65;;;16.40;55.90;;;;;;5052097;28;20044;-66
2022/06/15 00:04:34;;;;;;;4.00;2.38;;;16.40;56.00;;;;;;5051920;28;20064;-66
2022/06/15 00:07:00;;;;;;;3.50;2.15;;;16.40;56.00;;;;;;5051074;28;20037;-66
2022/06/15 00:09:26;;;;;;;4.82;2.35;;;16.40;56.10;;;;;;5052525;28;20052;-66
2022/06/15 00:11:52;;;;;;;2.97;2.20;;;16.40;56.20;;;;;;5051900;28;20051;-66
2022/06/15 00:14:25;;;;;;;4.05;2.85;;;16.30;56.20;;;;;;5051680;28;20049;-66
2022/06/15 00:16:51;;;;;;;5.30;2.20;;;16.30;56.30;;;;;;5052406;28;20045;-66
2022/06/15 00:19:17;;;;;;;3.80;2.08;;;16.20;56.30;;;;;;5067769;28;20052;-66
2022/06/15 00:21:43;;;;;;;5.40;2.75;;;16.20;56.30;;;;;;5051433;28;20040;-66
2022/06/15 00:24:09;;;;;;;3.78;1.92;;;16.20;56.40;;;;;;5052863;28;20048;-67
2022/06/15 00:26:36;;;;;;;3.85;1.90;;;16.10;56.40;;;;;;5068075;28;20041;-66
2022/06/15 00:29:02;;;;;;;4.80;2.40;;;16.10;56.40;;;;;;5064264;28;20040;-66
2022/06/15 00:31:28;;;;;;;5.25;2.67;;;16.10;56.50;;;;;;5051814;28;20481;-66
2022/06/15 00:33:53;;;;;;;5.43;2.17;;;16.10;56.60;;;;;;5052798;28;20051;-66
2022/06/15 00:36:21;;;;;;;4.28;2.65;;;16.10;56.70;;;;;;5051693;28;20041;-66
2022/06/15 00:38:49;;;;;;;4.15;2.20;;;16.10;56.70;;;;;;5053079;28;20495;-66
2022/06/15 00:41:24;;;;;;;4.97;2.25;;;16.00;56.80;;;;;;5051734;28;20056;-66
2022/06/15 00:43:56;;;;;;;5.25;2.67;;;15.90;56.80;;;;;;5049307;28;20049;-66
2022/06/15 00:46:39;;;;;;;5.60;2.75;;;16.00;56.90;;;;;;5051494;28;20037;-66
2022/06/15 00:49:31;;;;;;;4.65;2.67;;;15.90;56.90;;;;;;5051250;28;21707;-66
2022/06/15 00:52:21;;;;;;;4.63;2.90;;;15.90;56.90;;;;;;5051768;28;20366;-66
2022/06/15 00:54:50;;;;;;;5.63;3.03;;;15.80;56.90;;;;;;5051353;28;20044;-66
2022/06/15 00:57:16;;;;;;;4.43;2.20;;;15.80;57.00;;;;;;5051024;28;20502;-66
2022/06/15 00:59:57;;;;;;;3.58;2.05;;;15.80;57.40;;;;;;5051096;28;20137;-66
2022/06/15 01:02:25;;;;;;;4.63;2.60;;;15.80;57.10;;;;;;5050823;28;20095;-66
2022/06/15 01:05:03;;;;;;;4.95;3.10;;;15.70;57.10;;;;;;5051080;28;20044;-66
2022/06/15 01:07:43;;;;;;;4.72;2.50;;;15.70;57.20;;;;;;5051331;28;20111;-66
2022/06/15 01:10:25;;;;;;;4.55;2.28;;;15.70;57.20;;;;;;5050235;28;20098;-67
2022/06/15 01:13:01;;;;;;;4.80;2.85;;;15.70;57.20;;;;;;5051165;28;20045;-66
2022/06/15 01:15:33;;;;;;;4.70;2.40;;;15.60;57.30;;;;;;5050387;28;20091;-66
2022/06/15 01:18:08;;;;;;;4.10;2.85;;;15.60;57.30;;;;;;5034263;28;20140;-66
2022/06/15 01:20:58;;;;;;;3.13;2.20;;;15.60;57.40;;;;;;5048409;28;20120;-66
2022/06/15 01:23:45;;;;;;;6.53;2.80;;;15.60;57.40;;;;;;5052143;28;20384;-66
2022/06/15 01:26:14;;;;;;;4.22;2.28;;;15.50;57.50;;;;;;5050544;28;20053;-67
2022/06/15 01:29:12;;;;;;;5.72;2.97;;;15.40;57.40;;;;;;5050651;28;20079;-67
2022/06/15 01:31:48;;;;;;;4.25;2.55;;;15.50;57.50;;;;;;5032859;28;20045;-66
2022/06/15 01:34:35;;;;;;;5.70;3.15;;;15.50;57.50;;;;;;5034480;28;20354;-67
2022/06/15 01:37:29;;;;;;;5.65;2.83;;;15.40;57.60;;;;;;5050350;28;20124;-66
2022/06/15 01:40:25;;;;;;;4.18;2.20;;;15.40;57.60;;;;;;5050506;28;20045;-66
2022/06/15 01:43:00;;;;;;;4.40;2.63;;;15.30;57.60;;;;;;5050010;28;20488;-65
2022/06/15 01:45:30;;;;;;;4.57;2.80;;;15.30;57.60;;;;;;5049895;28;20090;-66
2022/06/15 01:47:59;;;;;;;4.95;2.67;;;15.30;57.70;;;;;;5049838;28;20478;-66
2022/06/15 01:50:29;;;;;;;5.03;2.20;;;15.20;57.70;;;;;;5050187;28;20040;-66
2022/06/15 01:53:12;;;;;;;4.68;2.30;;;15.20;57.70;;;;;;5050166;28;20125;-66
2022/06/15 01:55:45;;;;;;;5.10;2.50;;;15.20;57.80;;;;;;5050134;28;20029;-66
2022/06/15 01:58:13;;;;;;;4.55;2.40;;;15.20;58.20;;;;;;5050486;28;20044;-66
2022/06/15 02:00:40;;;;;;;3.72;2.50;;;15.20;57.80;;;;;;5049973;28;20126;-66
2022/06/15 02:03:12;;;;;;;3.33;2.10;;;15.10;57.80;;;;;;5050192;28;20124;-66
2022/06/15 02:06:10;;;;;;;3.90;2.38;;;15.10;57.80;;;;;;5049070;28;20841;-66
2022/06/15 02:08:38;;;;;;;3.55;2.40;;;15.10;57.90;;;;;;5049211;28;20124;-66
2022/06/15 02:11:15;;;;;;;3.38;2.42;;;15.10;58.30;;;;;;5049841;28;20127;-66
2022/06/15 02:14:02;;;;;;;3.90;2.53;;;15.10;58.00;;;;;;5050332;28;20484;-66
2022/06/15 02:16:35;;;;;;;3.67;2.30;;;15.10;58.00;;;;;;5049904;28;20556;-66
2022/06/15 02:19:04;;;;;;;4.82;2.70;;;15.00;58.00;;;;;;5050931;28;20104;-66
2022/06/15 02:21:31;;;;;;;4.00;2.97;;;15.00;58.00;;;;;;5049852;28;20051;-66
2022/06/15 02:24:00;;;;;;;6.55;2.72;;;15.00;58.10;;;;;;5048085;28;20385;-66
2022/06/15 02:26:31;;;;;;;3.90;2.72;;;15.00;58.10;;;;;;5050053;28;20175;-66
2022/06/15 02:29:00;;;;;;;3.38;2.65;;;14.90;58.10;;;;;;5050101;28;20376;-66
2022/06/15 02:31:27;;;;;;;3.05;2.33;;;14.90;58.20;;;;;;5049675;28;20106;-66
2022/06/15 02:33:56;;;;;;;4.80;2.92;;;14.90;58.20;;;;;;5049667;28;20041;-66
2022/06/15 02:36:23;;;;;;;4.03;2.90;;;14.90;58.20;;;;;;5050097;28;20147;-66
2022/06/15 02:38:51;;;;;;;3.85;2.70;;;14.80;58.20;;;;;;5050056;28;20547;-66
2022/06/15 02:41:19;;;;;;;5.93;2.70;;;14.80;58.30;;;;;;5033244;28;20040;-66
2022/06/15 02:43:47;;;;;;;3.90;2.95;;;14.80;58.40;;;;;;5050425;28;20052;-66
2022/06/15 02:46:15;;;;;;;4.88;2.50;;;14.70;58.40;;;;;;5047292;28;20074;-66
2022/06/15 02:48:41;;;;;;;4.32;2.58;;;14.80;58.50;;;;;;5049845;28;20132;-66
2022/06/15 02:51:36;;;;;;;3.30;2.70;;;14.70;58.40;;;;;;5049725;28;20464;-66
2022/06/15 02:54:13;;;;;;;3.92;2.53;;;14.70;58.70;;;;;;5049847;28;20052;-66
2022/06/15 02:56:39;;;;;;;4.78;2.70;;;14.70;58.40;;;;;;5063955;28;20037;-66
2022/06/15 02:59:06;;;;;;;3.83;2.30;;;14.70;58.50;;;;;;5050091;28;20107;-66
2022/06/15 03:01:35;;;;;;;3.47;2.30;;;14.60;58.50;;;;;;5049347;28;20041;-66
2022/06/15 03:04:00;;;;;;;5.20;2.63;;;14.60;58.50;;;;;;5049900;28;20055;-66
2022/06/15 03:06:29;;;;;;;3.22;2.60;;;14.60;58.50;;;;;;5032243;28;20489;-66
2022/06/15 03:08:56;;;;;;;3.83;2.47;;;14.60;58.60;;;;;;5049974;28;20487;-66
2022/06/15 03:11:24;;;;;;;4.25;2.28;;;14.60;58.60;;;;;;5049732;28;20041;-66
2022/06/15 03:13:51;;;;;;;3.83;2.22;;;14.50;58.60;;;;;;5049569;28;20044;-66
2022/06/15 03:16:17;;;;;;;3.92;2.15;;;14.50;58.60;;;;;;5049530;28;20041;-66
2022/06/15 03:18:43;;;;;;;5.97;2.33;;;14.50;58.60;;;;;;5049668;28;20392;-66
2022/06/15 03:21:08;;;;;;;4.65;2.55;;;14.50;58.70;;;;;;5050584;28;20033;-66
2022/06/15 03:23:35;;;;;;;3.85;2.92;;;14.50;58.70;;;;;;5049962;28;20048;-66
2022/06/15 03:26:03;;;;;;;3.10;2.50;;;14.50;58.70;;;;;;5053074;28;20111;-66
2022/06/15 03:28:29;;;;;;;5.28;2.85;;;14.50;58.80;;;;;;5053010;28;20045;-66
2022/06/15 03:30:54;;;;;;;3.22;2.15;;;14.40;58.80;;;;;;5036050;28;20051;-66
2022/06/15 03:33:20;;;;;;;3.78;2.10;;;14.50;58.80;;;;;;5052750;28;20112;-66
2022/06/15 03:35:47;;;;;;;2.63;2.13;;;14.40;58.80;;;;;;5059655;28;20100;-66
2022/06/15 03:38:13;;;;;;;5.38;2.70;;;14.40;58.80;;;;;;5053284;28;20028;-66
2022/06/15 03:40:44;;;;;;;4.43;2.72;;;14.40;58.80;;;;;;5052525;28;20611;-66
2022/06/15 03:43:10;;;;;;;5.50;2.50;;;14.40;58.90;;;;;;5053208;28;20463;-66
2022/06/15 03:45:37;;;;;;;4.70;2.90;;;14.40;59.00;;;;;;5053262;28;20065;-67
2022/06/15 03:48:03;;;;;;;2.65;2.05;;;14.40;59.00;;;;;;5053231;28;20427;-66
2022/06/15 03:50:31;;;;;;;4.85;2.15;;;14.40;59.00;;;;;;5036319;28;20033;-66
2022/06/15 03:52:59;;;;;;;5.68;2.45;;;14.40;59.10;;;;;;5053648;28;20044;-66
2022/06/15 03:55:25;;;;;;;4.88;2.60;;;14.30;59.10;;;;;;5051666;28;20076;-66
2022/06/15 03:57:50;;;;;;;4.93;2.83;;;14.30;59.10;;;;;;5052923;28;20041;-66
2022/06/15 04:00:20;;;;;;;4.63;2.90;;;14.30;59.20;;;;;;5036034;28;20761;-66
2022/06/15 04:02:45;;;;;;;6.28;3.05;;;14.30;59.30;;;;;;5052293;28;20056;-66
2022/06/15 04:05:17;;;;;;;5.28;2.67;;;14.30;59.30;;;;;;5052367;28;20037;-66
2022/06/15 04:10:27;;;;;;;3.58;2.28;;;14.30;59.40;;;;;;5052128;28;20102;-66
2022/06/15 04:12:53;;;;;;;3.63;2.45;;;14.30;59.50;;;;;;5058361;28;20036;-66
2022/06/15 04:15:19;;;;;;;4.07;2.47;;;14.30;59.50;;;;;;5052536;28;20464;-66
2022/06/15 04:17:45;;;;;;;5.18;2.65;;;14.30;59.50;;;;;;5051565;28;20041;-66
2022/06/15 04:20:36;;;;;;;4.78;2.78;;;14.20;59.60;;;;;;5051722;28;20045;-66
2022/06/15 04:23:03;;;;;;;5.10;2.63;;;14.30;59.60;;;;;;5065811;28;20515;-66
2022/06/15 04:25:31;;;;;;;3.90;2.67;;;14.30;59.70;;;;;;5051555;28;20068;-66
2022/06/15 04:27:57;;;;;;;3.72;2.60;;;14.30;59.80;;;;;;5051516;28;20124;-67
2022/06/15 04:30:23;;;;;;;5.53;2.55;;;14.30;59.90;;;;;;5051570;28;20035;-66
2022/06/15 04:32:49;;;;;;;3.35;2.28;;;14.20;59.90;;;;;;5052955;28;20048;-67
2022/06/15 04:35:15;;;;;;;4.97;2.85;;;14.30;60.00;;;;;;5050943;28;20037;-66
2022/06/15 04:37:41;;;;;;;4.65;3.13;;;14.30;60.10;;;;;;5051319;28;20044;-66
2022/06/15 04:40:08;;;;;;;3.65;2.78;;;14.30;60.10;;;;;;5051025;28;20033;-66
2022/06/15 04:42:35;;;;;;;4.05;3.10;;;14.30;60.30;;;;;;5051411;28;20045;-67
2022/06/15 04:45:00;;;;;;;5.18;3.30;;;14.30;60.50;;;;;;5052961;28;20399;-68
2022/06/15 04:47:26;;;;;;;5.60;3.58;;;14.30;60.70;;;;;;5051157;28;20112;-66
2022/06/15 04:49:52;;;;;;;4.15;2.78;;;14.30;61.00;;;;;;5051414;28;20043;-66
2022/06/15 04:52:17;;;;;;;4.78;3.78;;;14.30;61.10;;;;;;5051686;28;20036;-66
2022/06/15 04:54:43;;;;;;;5.95;3.75;;;14.30;61.40;;;;;;5051471;28;20503;-66
2022/06/15 04:57:09;;;;;;;5.43;4.80;;;14.30;62.00;;;;;;5035172;28;20044;-66
2022/06/15 04:59:34;;;;;;;5.72;3.80;;;14.30;61.80;;;;;;5034665;28;20396;-66
2022/06/15 05:02:00;;;;;;;8.48;4.25;;;14.30;62.10;;;;;;5052197;28;20605;-66
2022/06/15 05:04:26;;;;;;;8.45;4.93;;;14.30;62.30;;;;;;5051460;28;20076;-65
2022/06/15 05:06:52;;;;;;;6.68;4.53;;;14.40;62.70;;;;;;5050543;28;20048;-65
2022/06/15 05:09:18;;;;;;;10.35;4.75;;;14.40;62.90;;;;;;5051124;28;20048;-65
2022/06/15 05:11:44;;;;;;;9.05;5.20;;;14.40;63.30;;;;;;5051256;28;20692;-64
2022/06/15 05:14:10;;;;;;;8.73;6.20;;;14.50;63.60;;;;;;5050886;28;20032;-64
2022/06/15 05:16:36;;;;;;;11.40;5.70;;;14.50;64.10;;;;;;5034760;28;20036;-66
2022/06/15 05:19:03;;;;;;;8.02;4.72;;;14.50;64.60;;;;;;5054803;28;20070;-67
2022/06/15 05:21:28;;;;;;;6.47;4.60;;;14.60;64.70;;;;;;5034189;28;20037;-66
2022/06/15 05:23:55;;;;;;;7.60;5.38;;;14.80;64.80;;;;;;5049857;28;20067;-66
2022/06/15 05:26:24;;;;;;;9.20;5.65;;;15.00;64.60;;;;;;5051059;28;20049;-68
2022/06/15 05:28:50;;;;;;;7.78;4.65;;;15.20;64.60;;;;;;5048867;28;20128;-65
2022/06/15 05:31:20;;;;;;;8.30;4.10;;;15.50;64.80;;;;;;5052061;28;20033;-65
2022/06/15 05:33:46;;;;;;;8.95;5.28;;;15.90;64.40;;;;;;5050767;28;20052;-65
2022/06/15 05:36:15;;;;;;;6.80;4.43;;;16.30;63.70;;;;;;5050046;28;20116;-65
2022/06/15 05:38:41;;;;;;;7.47;4.90;;;16.60;62.90;;;;;;5050545;28;20033;-65
2022/06/15 05:41:08;;;;;;;8.80;4.65;;;17.00;62.60;;;;;;5050629;28;20055;-65
2022/06/15 05:43:37;;;;;;;9.48;4.32;;;17.30;62.10;;;;;;5050314;28;20045;-65
2022/06/15 05:46:23;;;;;;;5.68;4.43;;;17.70;61.00;;;;;;5051869;28;20049;-65
2022/06/15 05:48:49;;;;;;;7.22;4.80;;;18.00;60.20;;;;;;5049904;28;20492;-65
2022/06/15 05:51:14;;;;;;;5.68;4.65;;;18.40;59.60;;;;;;5048547;28;20040;-65
2022/06/15 05:53:40;;;;;;;7.82;4.28;;;18.70;59.30;;;;;;5049607;28;20049;-65
2022/06/15 05:56:06;;;;;;;8.95;4.25;;;19.00;58.70;;;;;;5050279;28;20094;-66
2022/06/15 05:58:32;;;;;;;7.22;3.42;;;19.20;58.10;;;;;;5050312;28;20041;-65
2022/06/15 06:01:05;;;;;;;6.07;4.05;;;19.60;57.20;;;;;;5050130;28;20037;-64
2022/06/15 06:03:31;;;;;;;7.25;4.03;;;19.90;57.00;;;;;;5051158;28;20040;-65
2022/06/15 06:05:57;;;;;;;8.10;3.95;;;20.20;56.40;;;;;;5052503;28;20033;-65
2022/06/15 06:08:22;;;;;;;7.97;3.53;;;20.60;56.20;;;;;;5051644;28;20045;-65
2022/06/15 06:10:48;;;;;;;9.23;3.88;;;20.70;54.90;;;;;;5051245;28;20037;-65
2022/06/15 06:13:13;;;;;;;7.47;3.33;;;20.90;54.10;;;;;;5034230;28;20037;-65
2022/06/15 06:15:39;;;;;;;5.85;3.30;;;21.00;53.30;;;;;;5051307;28;20066;-66
2022/06/15 06:18:05;;;;;;;6.53;3.38;;;21.00;53.10;;;;;;5050616;28;20392;-66
2022/06/15 06:20:31;;;;;;;6.25;3.10;;;21.00;52.60;;;;;;5050886;28;20236;-67
2022/06/15 06:22:56;;;;;;;7.43;3.33;;;21.00;52.40;;;;;;5052263;28;20041;-67
2022/06/15 06:25:22;;;;;;;6.97;3.17;;;21.10;52.70;;;;;;5052045;28;20060;-67
2022/06/15 06:27:47;;;;;;;5.38;2.67;;;21.30;52.50;;;;;;5051356;28;20049;-67
2022/06/15 06:30:14;;;;;;;6.00;2.50;;;21.60;52.40;;;;;;5051354;28;20373;-67
2022/06/15 06:32:39;;;;;;;7.70;3.03;;;21.90;51.90;;;;;;5051187;28;20408;-68
2022/06/15 06:35:07;;;;;;;5.63;2.97;;;22.10;50.70;;;;;;5050563;28;20048;-67
2022/06/15 06:37:35;;;;;;;8.68;3.55;;;22.20;49.90;;;;;;5035229;28;20124;-67
2022/06/15 06:40:01;;;;;;;6.90;3.53;;;22.10;48.50;;;;;;5051236;28;20057;-67
2022/06/15 06:42:27;;;;;;;7.30;3.25;;;22.00;48.70;;;;;;5051563;28;20041;-67
2022/06/15 06:44:52;;;;;;;5.28;3.40;;;22.00;49.60;;;;;;5052485;28;20036;-67
2022/06/15 06:47:18;;;;;;;6.13;3.35;;;22.10;49.10;;;;;;5034206;28;20055;-67
2022/06/15 06:49:44;;;;;;;7.53;4.03;;;22.00;49.10;;;;;;5051125;28;20076;-67
2022/06/15 06:52:09;;;;;;;4.78;2.78;;;22.00;49.70;;;;;;5052275;28;20481;-67
2022/06/15 06:54:35;;;;;;;5.53;3.65;;;22.10;49.80;;;;;;5051178;28;20045;-67
2022/06/15 06:57:01;;;;;;;6.82;3.42;;;22.20;49.50;;;;;;5050947;28;20103;-67
2022/06/15 06:59:27;;;;;;;7.28;3.72;;;22.20;49.00;;;;;;5052815;28;20044;-67
2022/06/15 07:01:52;;;;;;;6.88;3.63;;;22.20;48.80;;;;;;5055798;28;20128;-67
2022/06/15 07:04:19;;;;;;;6.82;4.00;;;22.40;49.10;;;;;;5054958;28;20118;-67
2022/06/15 07:06:45;;;;;;;9.57;3.47;;;22.50;49.30;;;;;;5054589;28;20049;-67
2022/06/15 07:09:11;;;;;;;6.30;2.70;;;22.70;49.60;;;;;;5054518;28;20041;-67
2022/06/15 07:11:37;;;;;;;8.43;2.95;;;22.90;48.80;;;;;;5054611;28;20484;-67
2022/06/15 07:14:04;;;;;;;5.05;3.00;;;23.20;48.50;;;;;;5054701;28;20098;-65
2022/06/15 07:16:31;;;;;;;5.53;3.28;;;23.40;47.30;;;;;;5054509;28;20098;-65
2022/06/15 07:18:56;;;;;;;6.82;3.92;;;23.60;47.40;;;;;;5054891;28;20067;-65
2022/06/15 07:21:24;;;;;;;6.38;3.28;;;23.60;46.80;;;;;;5054381;28;20111;-65
2022/06/15 07:23:52;;;;;;;8.88;3.60;;;23.70;46.00;;;;;;5054620;28;20388;-64
2022/06/15 07:26:22;;;;;;;6.00;3.08;;;23.80;45.70;;;;;;5054174;28;20057;-64
2022/06/15 07:28:48;;;;;;;7.20;2.78;;;24.00;46.10;;;;;;5054478;28;20068;-65
2022/06/15 07:31:26;;;;;;;7.40;3.17;;;24.20;45.70;;;;;;5053941;28;20033;-65
2022/06/15 07:33:52;;;;;;;4.22;2.60;;;24.40;46.00;;;;;;5054681;28;20453;-65
2022/06/15 07:36:20;;;;;;;5.85;3.15;;;24.60;45.40;;;;;;5054058;28;20562;-65
2022/06/15 07:38:45;;;;;;;7.68;3.03;;;24.80;44.40;;;;;;5054434;28;20145;-65
2022/06/15 07:41:11;;;;;;;6.53;3.53;;;24.80;43.50;;;;;;5053775;28;20620;-64
2022/06/15 07:43:39;;;;;;;6.97;2.70;;;24.90;44.00;;;;;;5055500;28;20045;-65
2022/06/15 07:46:05;;;;;;;5.07;2.90;;;25.00;44.70;;;;;;5054096;28;20470;-65
2022/06/15 07:51:28;;;;;;;6.88;3.03;;;25.30;43.60;;;;;;5055120;28;20159;-65
2022/06/15 07:53:55;;;;;;;7.53;3.42;;;25.50;43.60;;;;;;5054029;28;20040;-65
2022/06/15 07:56:21;;;;;;;5.47;2.72;;;25.50;43.20;;;;;;5054933;28;20045;-65
2022/06/15 07:58:47;;;;;;;7.85;3.10;;;25.70;42.80;;;;;;5055183;28;20044;-65
2022/06/15 08:01:12;;;;;;;5.47;2.65;;;25.90;43.00;;;;;;5054807;28;20399;-65
2022/06/15 08:03:38;;;;;;;5.47;2.83;;;26.10;42.90;;;;;;5055194;28;20044;-65
2022/06/15 08:06:04;;;;;;;6.15;2.97;;;26.20;42.30;;;;;;5037098;28;20045;-64
2022/06/15 08:08:31;;;;;;;4.60;1.70;;;26.30;41.90;;;;;;5053460;28;20116;-65
2022/06/15 08:10:56;;;;;;;5.30;2.22;;;26.30;41.30;;;;;;5054596;28;20041;-65
2022/06/15 08:13:23;;;;;;;4.07;2.20;;;26.40;41.30;;;;;;5053425;28;20047;-65
2022/06/15 08:15:50;;;;;;;3.55;1.75;;;26.50;40.10;;;;;;5053565;28;20431;-65
2022/06/15 08:18:27;;;;;;;7.65;2.85;;;26.40;39.30;;;;;;5054291;28;20049;-65
2022/06/15 08:21:00;;;;;;;6.75;2.15;;;26.30;38.30;;;;;;5054238;28;20041;-65
2022/06/15 08:23:31;;;;;;;4.95;2.10;;;26.00;38.20;;;;;;5053093;28;20044;-65
2022/06/15 08:25:59;;;;;;;6.45;2.42;;;25.70;38.50;;;;;;5052985;28;20145;-65
2022/06/15 08:28:29;;;;;;;6.18;2.40;;;25.50;38.90;;;;;;5053140;28;20056;-65
2022/06/15 08:30:56;;;;;;;4.07;1.42;;;25.40;39.90;;;;;;5052622;28;20098;-65
2022/06/15 08:33:22;;;;;;;4.15;1.70;;;25.40;38.60;;;;;;5054714;28;20069;-65
2022/06/15 08:35:50;;;;;;;5.65;1.40;;;25.20;38.70;;;;;;5053292;28;20045;-65
2022/06/15 08:38:18;;;;;;;3.63;1.48;;;25.10;39.00;;;;;;5052985;28;20179;-65
2022/06/15 08:41:22;;;;;;;4.75;1.75;;;25.10;37.60;;;;;;5036157;28;20119;-65
2022/06/15 08:44:08;;;;;;;5.93;1.88;;;25.10;36.80;;;;;;5044157;28;20053;-64
2022/06/15 08:47:11;;;;;;;7.43;3.17;;;25.00;37.30;;;;;;5054904;28;20104;-64
2022/06/15 08:49:56;;;;;;;4.97;1.88;;;25.00;37.60;;;;;;5034380;28;20056;-64
2022/06/15 08:52:42;;;;;;;4.32;1.17;;;25.00;37.90;;;;;;5045413;28;20072;-64
2022/06/15 08:55:23;;;;;;;4.57;1.48;;;25.20;39.20;;;;;;5051451;28;20044;-64
2022/06/15 08:58:00;;;;;;;4.57;1.40;;;25.30;39.20;;;;;;5052541;28;20045;-64
2022/06/15 09:00:35;;;;;;;4.63;1.55;;;25.40;38.70;;;;;;5052897;28;20508;-64
2022/06/15 09:03:24;;;;;;;4.47;1.80;;;25.50;39.00;;;;;;5049595;28;20048;-64
2022/06/15 09:06:02;;;;;;;4.80;1.48;;;25.60;38.90;;;;;;5052960;28;20377;-64
2022/06/15 09:08:33;;;;;;;2.63;1.30;;;25.70;39.10;;;;;;5035346;28;20090;-64
2022/06/15 09:11:25;;;;;;;7.07;1.63;;;25.70;38.50;;;;;;5053813;28;20041;-64
2022/06/15 09:14:10;;;;;;;2.88;1.30;;;25.70;38.40;;;;;;5052317;28;20488;-64
2022/06/15 09:16:56;;;;;;;5.63;1.60;;;25.70;38.20;;;;;;5053664;28;20083;-64
2022/06/15 09:19:56;;;;;;;2.75;1.40;;;25.80;38.70;;;;;;5052156;28;20053;-65
2022/06/15 09:22:27;;;;;;;4.30;1.20;;;25.90;38.20;;;;;;5051338;28;20047;-64
2022/06/15 09:24:59;;;;;;;2.05;1.17;;;26.00;37.60;;;;;;5053075;28;20049;-64
2022/06/15 09:27:35;;;;;;;4.50;1.77;;;26.10;37.90;;;;;;5052407;28;20067;-64
2022/06/15 09:30:12;;;;;;;3.65;1.33;;;26.30;36.30;;;;;;5051997;28;20473;-64
2022/06/15 09:32:47;;;;;;;4.57;1.42;;;26.30;36.70;;;;;;5051310;28;20118;-64
2022/06/15 09:35:16;;;;;;;3.72;1.65;;;26.30;37.00;;;;;;5039033;28;20049;-64
2022/06/15 09:37:46;;;;;;;2.83;1.10;;;26.40;36.60;;;;;;5051611;28;20045;-64
2022/06/15 09:40:14;;;;;;;4.63;1.40;;;26.40;36.80;;;;;;5030827;28;20126;-64
2022/06/15 09:43:06;;;;;;;2.80;1.10;;;26.50;37.30;;;;;;5031519;28;20088;-65
2022/06/15 09:46:04;;;;;;;3.17;1.35;;;26.60;38.60;;;;;;5038861;28;20045;-64
2022/06/15 09:48:56;;;;;;;3.30;1.40;;;26.60;37.40;;;;;;5052599;28;20037;-63
2022/06/15 09:51:53;;;;;;;5.32;1.52;;;26.70;37.10;;;;;;5034611;28;20102;-64
2022/06/15 09:54:24;;;;;;;5.85;1.77;;;26.70;36.60;;;;;;5051581;28;20111;-64
2022/06/15 09:56:51;;;;;;;3.92;1.20;;;26.60;37.00;;;;;;5059012;28;20052;-64
2022/06/15 09:59:21;;;;;;;4.53;1.60;;;26.70;37.60;;;;;;5055435;28;20131;-64
2022/06/15 10:01:48;;;;;;;3.65;1.45;;;26.70;37.10;;;;;;5051709;28;20049;-64
2022/06/15 10:04:24;;;;;;;7.03;1.60;;;26.60;36.70;;;;;;5051808;28;20036;-64
2022/06/15 10:07:06;;;;;;;3.95;1.65;;;26.50;37.80;;;;;;5057756;28;20040;-64
2022/06/15 10:09:36;;;;;;;4.85;2.28;;;26.60;37.80;;;;;;5050275;28;20056;-64
2022/06/15 10:15:19;;;;;;;4.07;1.67;;;26.70;37.70;;;;;;5068981;28;20052;-64
2022/06/15 10:17:52;;;;;;;5.28;1.80;;;26.80;37.10;;;;;;5060460;28;20135;-66
2022/06/15 10:20:35;;;;;;;3.25;1.40;;;26.80;36.80;;;;;;5061152;28;20071;-65
2022/06/15 10:23:06;;;;;;;4.60;1.98;;;26.70;36.20;;;;;;5056732;28;20044;-65
2022/06/15 10:25:36;;;;;;;4.30;1.55;;;26.60;35.90;;;;;;5053407;28;20067;-65
2022/06/15 10:28:16;;;;;;;4.38;1.60;;;26.60;36.90;;;;;;5059035;28;20049;-65
2022/06/15 10:30:58;;;;;;;3.15;1.40;;;26.60;37.20;;;;;;5050601;28;20044;-64
2022/06/15 10:33:24;;;;;;;6.75;2.47;;;26.60;37.50;;;;;;5052205;28;20036;-65
2022/06/15 10:35:59;;;;;;;4.60;1.50;;;26.70;37.70;;;;;;5058378;28;20056;-64
2022/06/15 10:38:27;;;;;;;4.53;1.73;;;26.70;37.70;;;;;;5064237;28;20044;-65
2022/06/15 10:40:58;;;;;;;3.75;1.63;;;26.70;37.20;;;;;;5049832;28;20041;-65
2022/06/15 10:43:31;;;;;;;5.05;1.63;;;26.80;38.10;;;;;;5049560;28;20157;-65
2022/06/15 10:46:04;;;;;;;5.68;2.15;;;26.90;37.60;;;;;;5048577;28;20438;-64
2022/06/15 10:48:57;;;;;;;6.47;1.88;;;26.90;37.00;;;;;;5056106;28;20049;-65
2022/06/15 10:51:33;;;;;;;4.83;2.03;;;26.90;36.50;;;;;;5046007;28;20821;-64
2022/06/15 10:54:17;;;;;;;3.05;1.60;;;26.90;36.50;;;;;;5052022;28;20037;-65
2022/06/15 11:02:42;;;;;;;4.35;1.60;;;26.60;38.20;;;;;;5050132;28;20051;-64
2022/06/15 11:05:08;;;;;;;5.40;1.92;;;26.60;37.70;;;;;;5060694;28;20128;-64
2022/06/15 11:07:46;;;;;;;3.42;1.77;;;26.70;37.20;;;;;;5051919;28;20036;-64
2022/06/15 11:10:47;;;;;;;3.60;1.35;;;26.70;37.40;;;;;;5063327;28;20090;-65
2022/06/15 11:13:39;;;;;;;4.88;1.65;;;26.80;38.30;;;;;;5015796;28;20057;-64
2022/06/15 11:19:17;;;;;;;6.55;2.00;;;26.90;36.90;;;;;;5053055;28;20122;-64
2022/06/15 11:21:52;;;;;;;3.25;1.98;;;27.00;37.10;;;;;;5037898;28;20510;-66
2022/06/15 11:24:47;;;;;;;4.28;1.33;;;27.10;37.20;;;;;;5054022;28;20508;-65
2022/06/15 11:27:35;;;;;;;3.80;1.50;;;27.10;36.70;;;;;;5064054;28;20037;-64
2022/06/15 11:30:28;;;;;;;4.55;1.40;;;27.20;36.90;;;;;;5036010;28;20128;-64
2022/06/15 11:33:02;;;;;;;3.65;1.50;;;27.20;36.50;;;;;;5054119;28;20040;-64
2022/06/15 11:35:36;;;;;;;3.38;1.17;;;27.20;36.90;;;;;;5054747;28;20515;-65
2022/06/15 11:38:28;;;;;;;4.30;1.52;;;27.20;37.30;;;;;;5071029;28;20051;-65
2022/06/15 11:41:01;;;;;;;4.15;1.67;;;27.10;36.40;;;;;;5054898;28;20083;-65
2022/06/15 11:43:33;;;;;;;4.53;1.08;;;26.90;36.20;;;;;;5037725;28;20049;-65
2022/06/15 11:45:58;;;;;;;4.55;1.80;;;26.90;37.10;;;;;;5052300;28;20045;-65
2022/06/15 11:48:50;;;;;;;4.63;1.58;;;26.80;36.20;;;;;;5055329;28;20044;-65
2022/06/15 11:51:32;;;;;;;7.10;1.70;;;26.90;37.00;;;;;;5045740;28;20396;-65
2022/06/15 11:54:25;;;;;;;4.32;1.50;;;27.00;36.80;;;;;;5054619;28;20780;-66
2022/06/15 11:57:05;;;;;;;5.23;1.73;;;26.90;36.50;;;;;;5052805;28;20044;-65
2022/06/15 12:00:10;;;;;;;2.05;1.00;;;26.90;36.70;;;;;;5053666;28;20275;-65
2022/06/15 12:02:55;;;;;;;5.60;1.50;;;26.90;37.00;;;;;;5052360;28;20053;-65
2022/06/15 12:05:44;;;;;;;4.68;1.45;;;27.00;37.10;;;;;;5054349;28;20044;-65
2022/06/15 12:08:40;;;;;;;2.85;1.40;;;27.00;37.20;;;;;;5033807;28;20041;-65
2022/06/15 12:14:34;;;;;;;3.45;1.23;;;27.10;36.70;;;;;;5069133;28;20076;-65
2022/06/15 12:17:15;;;;;;;4.88;1.75;;;27.20;36.90;;;;;;5052802;28;20049;-65
2022/06/15 12:19:47;;;;;;;3.75;1.63;;;27.10;35.70;;;;;;5039721;28;20052;-65
2022/06/15 12:22:16;;;;;;;4.30;1.40;;;27.00;35.30;;;;;;5065160;28;20044;-65
2022/06/15 12:24:47;;;;;;;3.72;1.55;;;26.90;35.00;;;;;;5061185;28;20051;-65
2022/06/15 12:27:37;;;;;;;3.30;1.48;;;26.80;35.60;;;;;;5067592;28;20061;-65
2022/06/15 12:30:07;;;;;;;6.15;2.10;;;26.70;36.40;;;;;;5068518;28;20468;-65
2022/06/15 12:32:59;;;;;;;2.75;1.30;;;26.60;36.10;;;;;;5065992;28;20043;-65
2022/06/15 12:35:28;;;;;;;3.55;1.40;;;26.70;36.50;;;;;;5064004;28;20135;-65
2022/06/15 12:38:02;;;;;;;3.70;1.67;;;26.70;36.40;;;;;;5051602;28;20040;-65
2022/06/15 12:40:30;;;;;;;5.95;1.60;;;26.70;36.40;;;;;;5063939;28;20040;-65
2022/06/15 12:43:16;;;;;;;4.00;1.55;;;26.60;37.40;;;;;;5065662;28;20033;-65
2022/06/15 12:45:48;;;;;;;3.08;1.50;;;26.50;36.10;;;;;;5067182;28;20377;-64
2022/06/15 12:48:57;;;;;;;3.85;1.67;;;26.40;36.70;;;;;;5067494;28;20068;-65
2022/06/15 12:52:09;;;;;;;4.07;1.33;;;26.40;36.80;;;;;;5048504;28;20488;-66
2022/06/15 12:55:19;;;;;;;3.47;1.10;;;26.40;37.20;;;;;;5052319;28;20060;-65
2022/06/15 12:58:03;;;;;;;2.95;1.25;;;26.50;37.20;;;;;;5064906;28;20054;-66
2022/06/15 13:00:43;;;;;;;5.30;1.38;;;26.50;37.40;;;;;;5067507;28;20041;-65
2022/06/15 13:03:53;;;;;;;3.55;1.15;;;26.60;36.40;;;;;;5067792;28;20444;-65
2022/06/15 13:06:33;;;;;;;5.00;1.65;;;26.70;36.30;;;;;;5067207;28;20123;-65
2022/06/15 13:09:18;;;;;;;4.65;1.48;;;26.70;35.50;;;;;;5068502;28;20167;-65
2022/06/15 13:12:09;;;;;;;3.90;1.42;;;26.70;36.40;;;;;;5065830;28;20045;-65
2022/06/15 13:14:43;;;;;;;2.67;1.20;;;26.60;36.50;;;;;;5051870;28;20052;-65
2022/06/15 13:17:16;;;;;;;3.10;1.05;;;26.60;37.30;;;;;;5067373;28;20032;-65
2022/06/15 13:19:48;;;;;;;2.05;0.82;;;26.60;37.00;;;;;;5066955;28;20078;-65
2022/06/15 13:22:26;;;;;;;3.03;1.40;;;26.50;37.20;;;;;;5066584;28;20058;-65
2022/06/15 13:25:03;;;;;;;3.83;1.50;;;26.60;38.00;;;;;;5065462;28;20033;-66
2022/06/15 13:27:35;;;;;;;3.08;1.50;;;26.60;37.70;;;;;;5067599;28;20049;-66
2022/06/15 13:30:08;;;;;;;3.13;1.10;;;26.60;36.50;;;;;;5067964;28;20063;-66
2022/06/15 13:32:53;;;;;;;;;;;26.40;36.50;;;;;;5049994;28;20049;-67
2022/06/15 13:35:23;;;;;;;;;;;26.30;36.90;;;;;;5039741;28;19916;-65
2022/06/15 13:38:01;;;;;;;3.92;1.48;;;26.30;37.40;;;;;;5051964;28;20291;-66
2022/06/15 13:40:58;;;;;;;4.00;1.50;;;26.30;36.90;;;;;;5050947;28;20410;-65